sensor_id;sensor_type;location;lat;lon;timestamp;P1;durP1;ratioP1;P2;durP2;ratioP2
20441;SDS011;10380;52.102;20.614;2023-02-25T00:01:21;20.80;;;12.10;;
20441;SDS011;10380;52.102;20.614;2023-02-25T00:03:55;19.30;;;12.20;;
20441;SDS011;10380;52.102;20.614;2023-02-25T00:06:23;25.17;;;12.53;;
20441;SDS011;10380;52.102;20.614;2023-02-25T00:08:51;21.93;;;12.80;;
20441;SDS011;10380;52.102;20.614;2023-02-25T00:11:18;20.73;;;11.93;;
20441;SDS011;10380;52.102;20.614;2023-02-25T00:13:46;18.30;;;11.70;;
20441;SDS011;10380;52.102;20.614;2023-02-25T00:16:13;24.07;;;12.33;;
20441;SDS011;10380;52.102;20.614;2023-02-25T00:18:41;18.03;;;11.57;;
20441;SDS011;10380;52.102;20.614;2023-02-25T00:21:13;22.57;;;12.37;;
20441;SDS011;10380;52.102;20.614;2023-02-25T00:23:42;23.87;;;11.77;;
20441;SDS011;10380;52.102;20.614;2023-02-25T00:26:10;25.83;;;13.20;;
20441;SDS011;10380;52.102;20.614;2023-02-25T00:28:39;23.93;;;13.87;;
20441;SDS011;10380;52.102;20.614;2023-02-25T00:31:07;21.97;;;12.43;;
20441;SDS011;10380;52.102;20.614;2023-02-25T00:33:39;23.73;;;12.97;;
20441;SDS011;10380;52.102;20.614;2023-02-25T00:36:08;21.23;;;12.87;;
20441;SDS011;10380;52.102;20.614;2023-02-25T00:38:36;21.40;;;12.30;;
20441;SDS011;10380;52.102;20.614;2023-02-25T00:41:07;19.80;;;12.77;;
20441;SDS011;10380;52.102;20.614;2023-02-25T00:43:39;23.17;;;11.87;;
20441;SDS011;10380;52.102;20.614;2023-02-25T00:46:08;20.83;;;11.53;;
20441;SDS011;10380;52.102;20.614;2023-02-25T00:48:37;17.97;;;9.70;;
20441;SDS011;10380;52.102;20.614;2023-02-25T00:51:09;16.93;;;10.13;;
20441;SDS011;10380;52.102;20.614;2023-02-25T00:53:39;16.13;;;9.53;;
20441;SDS011;10380;52.102;20.614;2023-02-25T00:56:07;17.90;;;10.93;;
20441;SDS011;10380;52.102;20.614;2023-02-25T00:58:37;16.07;;;9.17;;
20441;SDS011;10380;52.102;20.614;2023-02-25T01:01:05;17.77;;;9.50;;
20441;SDS011;10380;52.102;20.614;2023-02-25T01:03:43;14.67;;;9.57;;
20441;SDS011;10380;52.102;20.614;2023-02-25T01:06:11;18.27;;;9.40;;
20441;SDS011;10380;52.102;20.614;2023-02-25T01:08:38;17.90;;;9.47;;
20441;SDS011;10380;52.102;20.614;2023-02-25T01:11:10;14.03;;;8.57;;
20441;SDS011;10380;52.102;20.614;2023-02-25T01:13:54;14.43;;;7.70;;
20441;SDS011;10380;52.102;20.614;2023-02-25T01:16:23;13.70;;;8.50;;
20441;SDS011;10380;52.102;20.614;2023-02-25T01:18:55;13.87;;;8.67;;
20441;SDS011;10380;52.102;20.614;2023-02-25T01:21:26;15.83;;;9.60;;
20441;SDS011;10380;52.102;20.614;2023-02-25T01:23:57;14.47;;;8.50;;
20441;SDS011;10380;52.102;20.614;2023-02-25T01:26:29;14.37;;;8.70;;
20441;SDS011;10380;52.102;20.614;2023-02-25T01:28:58;19.53;;;8.87;;
20441;SDS011;10380;52.102;20.614;2023-02-25T01:31:25;20.97;;;9.80;;
20441;SDS011;10380;52.102;20.614;2023-02-25T01:33:57;19.53;;;8.47;;
20441;SDS011;10380;52.102;20.614;2023-02-25T01:36:26;15.00;;;9.80;;
20441;SDS011;10380;52.102;20.614;2023-02-25T01:38:55;17.27;;;9.30;;
20441;SDS011;10380;52.102;20.614;2023-02-25T01:41:23;16.13;;;9.50;;
20441;SDS011;10380;52.102;20.614;2023-02-25T01:44:03;19.83;;;9.87;;
20441;SDS011;10380;52.102;20.614;2023-02-25T01:46:31;18.57;;;9.70;;
20441;SDS011;10380;52.102;20.614;2023-02-25T01:49:00;18.13;;;10.37;;
20441;SDS011;10380;52.102;20.614;2023-02-25T01:51:28;16.20;;;9.07;;
20441;SDS011;10380;52.102;20.614;2023-02-25T01:53:58;21.00;;;9.93;;
20441;SDS011;10380;52.102;20.614;2023-02-25T01:56:28;15.57;;;10.00;;
20441;SDS011;10380;52.102;20.614;2023-02-25T01:58:57;18.07;;;9.80;;
20441;SDS011;10380;52.102;20.614;2023-02-25T02:01:25;17.20;;;10.07;;
20441;SDS011;10380;52.102;20.614;2023-02-25T02:03:57;13.63;;;8.83;;
20441;SDS011;10380;52.102;20.614;2023-02-25T02:06:30;18.13;;;10.27;;
20441;SDS011;10380;52.102;20.614;2023-02-25T02:09:01;17.63;;;9.97;;
20441;SDS011;10380;52.102;20.614;2023-02-25T02:11:33;16.83;;;9.23;;
20441;SDS011;10380;52.102;20.614;2023-02-25T02:14:01;16.10;;;10.50;;
20441;SDS011;10380;52.102;20.614;2023-02-25T02:25:01;17.37;;;9.67;;
20441;SDS011;10380;52.102;20.614;2023-02-25T02:41:05;15.90;;;9.63;;
20441;SDS011;10380;52.102;20.614;2023-02-25T02:43:57;18.60;;;10.00;;
20441;SDS011;10380;52.102;20.614;2023-02-25T02:46:49;16.03;;;9.33;;
20441;SDS011;10380;52.102;20.614;2023-02-25T02:49:22;20.70;;;11.30;;
20441;SDS011;10380;52.102;20.614;2023-02-25T02:51:54;15.87;;;10.30;;
20441;SDS011;10380;52.102;20.614;2023-02-25T02:54:26;17.63;;;11.07;;
20441;SDS011;10380;52.102;20.614;2023-02-25T02:56:59;19.43;;;10.77;;
20441;SDS011;10380;52.102;20.614;2023-02-25T02:59:38;17.83;;;10.20;;
20441;SDS011;10380;52.102;20.614;2023-02-25T03:02:22;18.13;;;10.13;;
20441;SDS011;10380;52.102;20.614;2023-02-25T03:05:05;15.73;;;10.60;;
20441;SDS011;10380;52.102;20.614;2023-02-25T03:07:37;15.33;;;9.90;;
20441;SDS011;10380;52.102;20.614;2023-02-25T03:10:09;17.37;;;9.40;;
20441;SDS011;10380;52.102;20.614;2023-02-25T03:12:40;17.77;;;9.63;;
20441;SDS011;10380;52.102;20.614;2023-02-25T03:15:07;15.20;;;9.27;;
20441;SDS011;10380;52.102;20.614;2023-02-25T03:17:46;18.70;;;9.93;;
20441;SDS011;10380;52.102;20.614;2023-02-25T03:21:03;14.87;;;9.97;;
20441;SDS011;10380;52.102;20.614;2023-02-25T03:23:14;12.63;;;7.83;;
20441;SDS011;10380;52.102;20.614;2023-02-25T03:25:54;14.77;;;10.00;;
20441;SDS011;10380;52.102;20.614;2023-02-25T03:28:28;12.77;;;9.47;;
20441;SDS011;10380;52.102;20.614;2023-02-25T03:30:59;16.17;;;9.43;;
20441;SDS011;10380;52.102;20.614;2023-02-25T03:33:37;15.00;;;9.03;;
20441;SDS011;10380;52.102;20.614;2023-02-25T03:39:13;14.30;;;9.77;;
20441;SDS011;10380;52.102;20.614;2023-02-25T03:41:47;15.47;;;10.63;;
20441;SDS011;10380;52.102;20.614;2023-02-25T03:47:20;15.63;;;10.07;;
20441;SDS011;10380;52.102;20.614;2023-02-25T03:49:53;16.60;;;10.03;;
20441;SDS011;10380;52.102;20.614;2023-02-25T03:52:25;14.63;;;9.33;;
20441;SDS011;10380;52.102;20.614;2023-02-25T03:54:54;13.27;;;9.40;;
20441;SDS011;10380;52.102;20.614;2023-02-25T03:57:23;11.97;;;8.83;;
20441;SDS011;10380;52.102;20.614;2023-02-25T03:59:54;12.80;;;9.30;;
20441;SDS011;10380;52.102;20.614;2023-02-25T04:02:28;12.57;;;9.07;;
20441;SDS011;10380;52.102;20.614;2023-02-25T04:04:58;12.87;;;9.20;;
20441;SDS011;10380;52.102;20.614;2023-02-25T04:07:25;9.23;;;6.53;;
20441;SDS011;10380;52.102;20.614;2023-02-25T04:09:52;12.17;;;8.23;;
20441;SDS011;10380;52.102;20.614;2023-02-25T04:12:19;12.00;;;8.33;;
20441;SDS011;10380;52.102;20.614;2023-02-25T04:14:46;8.90;;;6.53;;
20441;SDS011;10380;52.102;20.614;2023-02-25T04:17:13;11.30;;;8.57;;
20441;SDS011;10380;52.102;20.614;2023-02-25T04:19:40;12.70;;;8.23;;
20441;SDS011;10380;52.102;20.614;2023-02-25T04:22:09;9.97;;;8.13;;
20441;SDS011;10380;52.102;20.614;2023-02-25T04:24:36;12.13;;;8.33;;
20441;SDS011;10380;52.102;20.614;2023-02-25T04:27:03;11.30;;;8.23;;
20441;SDS011;10380;52.102;20.614;2023-02-25T04:29:32;12.93;;;9.00;;
20441;SDS011;10380;52.102;20.614;2023-02-25T04:31:59;10.37;;;7.57;;
20441;SDS011;10380;52.102;20.614;2023-02-25T04:34:26;9.23;;;7.07;;
20441;SDS011;10380;52.102;20.614;2023-02-25T04:36:54;11.47;;;8.73;;
20441;SDS011;10380;52.102;20.614;2023-02-25T04:39:23;13.53;;;8.83;;
20441;SDS011;10380;52.102;20.614;2023-02-25T04:41:49;13.53;;;8.50;;
20441;SDS011;10380;52.102;20.614;2023-02-25T04:44:17;12.80;;;8.87;;
20441;SDS011;10380;52.102;20.614;2023-02-25T04:46:44;12.10;;;8.67;;
20441;SDS011;10380;52.102;20.614;2023-02-25T04:49:11;12.17;;;8.37;;
20441;SDS011;10380;52.102;20.614;2023-02-25T04:51:44;12.20;;;9.00;;
20441;SDS011;10380;52.102;20.614;2023-02-25T04:54:12;12.77;;;8.90;;
20441;SDS011;10380;52.102;20.614;2023-02-25T04:56:39;12.03;;;8.33;;
20441;SDS011;10380;52.102;20.614;2023-02-25T04:59:06;10.77;;;8.17;;
20441;SDS011;10380;52.102;20.614;2023-02-25T05:01:37;11.57;;;7.87;;
20441;SDS011;10380;52.102;20.614;2023-02-25T05:04:05;10.33;;;7.60;;
20441;SDS011;10380;52.102;20.614;2023-02-25T05:06:32;11.47;;;8.10;;
20441;SDS011;10380;52.102;20.614;2023-02-25T05:09:01;12.03;;;8.40;;
20441;SDS011;10380;52.102;20.614;2023-02-25T05:11:29;11.23;;;7.77;;
20441;SDS011;10380;52.102;20.614;2023-02-25T05:13:56;9.77;;;7.30;;
20441;SDS011;10380;52.102;20.614;2023-02-25T05:16:23;10.50;;;7.60;;
20441;SDS011;10380;52.102;20.614;2023-02-25T05:18:52;11.97;;;7.77;;
20441;SDS011;10380;52.102;20.614;2023-02-25T05:21:20;10.03;;;7.33;;
20441;SDS011;10380;52.102;20.614;2023-02-25T05:23:50;8.90;;;7.43;;
20441;SDS011;10380;52.102;20.614;2023-02-25T05:26:19;10.50;;;7.87;;
20441;SDS011;10380;52.102;20.614;2023-02-25T05:28:52;11.00;;;7.50;;
20441;SDS011;10380;52.102;20.614;2023-02-25T05:31:22;9.73;;;7.60;;
20441;SDS011;10380;52.102;20.614;2023-02-25T05:33:51;9.63;;;7.17;;
20441;SDS011;10380;52.102;20.614;2023-02-25T05:36:20;10.40;;;6.67;;
20441;SDS011;10380;52.102;20.614;2023-02-25T05:38:54;10.20;;;7.20;;
20441;SDS011;10380;52.102;20.614;2023-02-25T05:41:24;11.13;;;8.03;;
20441;SDS011;10380;52.102;20.614;2023-02-25T05:43:51;11.67;;;8.50;;
20441;SDS011;10380;52.102;20.614;2023-02-25T05:46:20;11.60;;;7.90;;
20441;SDS011;10380;52.102;20.614;2023-02-25T05:48:48;10.47;;;8.43;;
20441;SDS011;10380;52.102;20.614;2023-02-25T05:51:17;11.00;;;8.40;;
20441;SDS011;10380;52.102;20.614;2023-02-25T05:53:46;15.10;;;9.23;;
20441;SDS011;10380;52.102;20.614;2023-02-25T05:56:16;11.20;;;9.17;;
20441;SDS011;10380;52.102;20.614;2023-02-25T05:58:45;14.93;;;10.53;;
20441;SDS011;10380;52.102;20.614;2023-02-25T06:01:17;16.53;;;11.70;;
20441;SDS011;10380;52.102;20.614;2023-02-25T06:03:48;16.23;;;10.77;;
20441;SDS011;10380;52.102;20.614;2023-02-25T06:06:17;14.00;;;9.40;;
20441;SDS011;10380;52.102;20.614;2023-02-25T06:08:50;14.97;;;10.33;;
20441;SDS011;10380;52.102;20.614;2023-02-25T06:11:19;15.07;;;10.70;;
20441;SDS011;10380;52.102;20.614;2023-02-25T06:13:55;15.97;;;10.40;;
20441;SDS011;10380;52.102;20.614;2023-02-25T06:16:24;15.30;;;10.73;;
20441;SDS011;10380;52.102;20.614;2023-02-25T06:18:58;17.13;;;11.30;;
20441;SDS011;10380;52.102;20.614;2023-02-25T06:21:26;16.17;;;10.80;;
20441;SDS011;10380;52.102;20.614;2023-02-25T06:23:53;16.63;;;11.83;;
20441;SDS011;10380;52.102;20.614;2023-02-25T06:26:21;21.30;;;13.93;;
20441;SDS011;10380;52.102;20.614;2023-02-25T06:28:48;16.53;;;11.20;;
20441;SDS011;10380;52.102;20.614;2023-02-25T06:31:16;17.13;;;11.27;;
20441;SDS011;10380;52.102;20.614;2023-02-25T06:33:44;19.60;;;12.20;;
20441;SDS011;10380;52.102;20.614;2023-02-25T06:36:12;16.80;;;11.33;;
20441;SDS011;10380;52.102;20.614;2023-02-25T06:38:39;18.13;;;12.67;;
20441;SDS011;10380;52.102;20.614;2023-02-25T06:41:09;17.97;;;12.47;;
20441;SDS011;10380;52.102;20.614;2023-02-25T06:43:42;20.70;;;12.80;;
20441;SDS011;10380;52.102;20.614;2023-02-25T06:46:11;18.00;;;12.60;;
20441;SDS011;10380;52.102;20.614;2023-02-25T06:48:39;18.20;;;12.20;;
20441;SDS011;10380;52.102;20.614;2023-02-25T06:51:07;22.27;;;14.13;;
20441;SDS011;10380;52.102;20.614;2023-02-25T06:53:36;16.80;;;12.30;;
20441;SDS011;10380;52.102;20.614;2023-02-25T06:56:05;19.53;;;12.60;;
20441;SDS011;10380;52.102;20.614;2023-02-25T06:58:33;18.27;;;12.90;;
20441;SDS011;10380;52.102;20.614;2023-02-25T07:01:04;21.80;;;13.40;;
20441;SDS011;10380;52.102;20.614;2023-02-25T07:03:32;21.43;;;13.77;;
20441;SDS011;10380;52.102;20.614;2023-02-25T07:05:59;20.93;;;13.87;;
20441;SDS011;10380;52.102;20.614;2023-02-25T07:08:28;25.73;;;15.50;;
20441;SDS011;10380;52.102;20.614;2023-02-25T07:11:08;20.93;;;14.57;;
20441;SDS011;10380;52.102;20.614;2023-02-25T07:13:40;22.20;;;15.07;;
20441;SDS011;10380;52.102;20.614;2023-02-25T07:16:09;22.07;;;15.47;;
20441;SDS011;10380;52.102;20.614;2023-02-25T07:18:40;26.60;;;15.83;;
20441;SDS011;10380;52.102;20.614;2023-02-25T07:21:07;26.70;;;16.87;;
20441;SDS011;10380;52.102;20.614;2023-02-25T07:23:35;29.03;;;18.57;;
20441;SDS011;10380;52.102;20.614;2023-02-25T07:26:05;26.60;;;18.77;;
20441;SDS011;10380;52.102;20.614;2023-02-25T07:28:34;27.23;;;16.90;;
20441;SDS011;10380;52.102;20.614;2023-02-25T07:31:02;28.70;;;17.20;;
20441;SDS011;10380;52.102;20.614;2023-02-25T07:33:34;25.20;;;15.83;;
20441;SDS011;10380;52.102;20.614;2023-02-25T07:36:01;26.93;;;16.77;;
20441;SDS011;10380;52.102;20.614;2023-02-25T07:38:28;27.07;;;16.20;;
20441;SDS011;10380;52.102;20.614;2023-02-25T07:40:55;23.00;;;14.20;;
20441;SDS011;10380;52.102;20.614;2023-02-25T07:43:22;22.77;;;14.57;;
20441;SDS011;10380;52.102;20.614;2023-02-25T07:45:50;22.10;;;13.90;;
20441;SDS011;10380;52.102;20.614;2023-02-25T07:48:17;19.73;;;12.57;;
20441;SDS011;10380;52.102;20.614;2023-02-25T07:50:45;20.60;;;14.27;;
20441;SDS011;10380;52.102;20.614;2023-02-25T07:53:12;21.33;;;13.90;;
20441;SDS011;10380;52.102;20.614;2023-02-25T07:55:41;19.50;;;13.90;;
20441;SDS011;10380;52.102;20.614;2023-02-25T07:58:10;18.33;;;13.47;;
20441;SDS011;10380;52.102;20.614;2023-02-25T08:00:39;21.13;;;14.00;;
20441;SDS011;10380;52.102;20.614;2023-02-25T08:03:06;20.07;;;13.63;;
20441;SDS011;10380;52.102;20.614;2023-02-25T08:05:34;27.23;;;16.03;;
20441;SDS011;10380;52.102;20.614;2023-02-25T08:08:02;29.57;;;16.80;;
20441;SDS011;10380;52.102;20.614;2023-02-25T08:10:30;31.23;;;18.20;;
20441;SDS011;10380;52.102;20.614;2023-02-25T08:12:58;39.17;;;20.07;;
20441;SDS011;10380;52.102;20.614;2023-02-25T08:15:25;37.27;;;20.93;;
20441;SDS011;10380;52.102;20.614;2023-02-25T08:17:52;44.30;;;22.93;;
20441;SDS011;10380;52.102;20.614;2023-02-25T08:20:22;40.67;;;20.80;;
20441;SDS011;10380;52.102;20.614;2023-02-25T08:22:49;44.50;;;22.33;;
20441;SDS011;10380;52.102;20.614;2023-02-25T08:25:17;34.97;;;18.87;;
20441;SDS011;10380;52.102;20.614;2023-02-25T08:27:44;27.20;;;16.33;;
20441;SDS011;10380;52.102;20.614;2023-02-25T08:30:11;18.43;;;12.73;;
20441;SDS011;10380;52.102;20.614;2023-02-25T08:32:40;22.50;;;13.57;;
20441;SDS011;10380;52.102;20.614;2023-02-25T08:35:07;18.17;;;12.67;;
20441;SDS011;10380;52.102;20.614;2023-02-25T08:37:35;18.67;;;11.97;;
20441;SDS011;10380;52.102;20.614;2023-02-25T08:40:03;17.67;;;10.93;;
20441;SDS011;10380;52.102;20.614;2023-02-25T08:42:35;17.67;;;11.53;;
20441;SDS011;10380;52.102;20.614;2023-02-25T08:45:03;17.30;;;11.53;;
20441;SDS011;10380;52.102;20.614;2023-02-25T08:47:30;16.57;;;11.80;;
20441;SDS011;10380;52.102;20.614;2023-02-25T08:49:58;16.83;;;12.17;;
20441;SDS011;10380;52.102;20.614;2023-02-25T08:52:26;13.73;;;10.50;;
20441;SDS011;10380;52.102;20.614;2023-02-25T08:55:02;19.00;;;11.30;;
20441;SDS011;10380;52.102;20.614;2023-02-25T08:57:30;14.67;;;10.00;;
20441;SDS011;10380;52.102;20.614;2023-02-25T08:59:57;14.93;;;9.83;;
20441;SDS011;10380;52.102;20.614;2023-02-25T09:02:24;13.57;;;9.57;;
20441;SDS011;10380;52.102;20.614;2023-02-25T09:04:51;14.40;;;9.17;;
20441;SDS011;10380;52.102;20.614;2023-02-25T09:07:18;12.43;;;8.60;;
20441;SDS011;10380;52.102;20.614;2023-02-25T09:09:45;11.37;;;8.07;;
20441;SDS011;10380;52.102;20.614;2023-02-25T09:12:12;11.77;;;7.67;;
20441;SDS011;10380;52.102;20.614;2023-02-25T09:14:40;8.80;;;7.30;;
20441;SDS011;10380;52.102;20.614;2023-02-25T09:17:06;12.00;;;8.73;;
20441;SDS011;10380;52.102;20.614;2023-02-25T09:19:35;13.33;;;8.00;;
20441;SDS011;10380;52.102;20.614;2023-02-25T09:22:07;8.30;;;6.67;;
20441;SDS011;10380;52.102;20.614;2023-02-25T09:24:35;10.17;;;6.93;;
20441;SDS011;10380;52.102;20.614;2023-02-25T09:27:02;11.07;;;7.50;;
20441;SDS011;10380;52.102;20.614;2023-02-25T09:29:35;10.33;;;6.73;;
20441;SDS011;10380;52.102;20.614;2023-02-25T09:32:04;8.63;;;6.33;;
20441;SDS011;10380;52.102;20.614;2023-02-25T09:34:32;9.10;;;6.13;;
20441;SDS011;10380;52.102;20.614;2023-02-25T09:37:00;6.50;;;4.83;;
20441;SDS011;10380;52.102;20.614;2023-02-25T09:39:29;8.07;;;5.40;;
20441;SDS011;10380;52.102;20.614;2023-02-25T09:41:58;8.87;;;5.63;;
20441;SDS011;10380;52.102;20.614;2023-02-25T09:44:38;5.37;;;2.90;;
20441;SDS011;10380;52.102;20.614;2023-02-25T09:47:29;2.80;;;2.13;;
20441;SDS011;10380;52.102;20.614;2023-02-25T09:50:11;4.20;;;3.03;;
20441;SDS011;10380;52.102;20.614;2023-02-25T09:53:34;4.47;;;2.27;;
20441;SDS011;10380;52.102;20.614;2023-02-25T09:55:53;3.53;;;2.23;;
20441;SDS011;10380;52.102;20.614;2023-02-25T09:58:29;3.70;;;2.70;;
20441;SDS011;10380;52.102;20.614;2023-02-25T10:06:27;6.03;;;3.60;;
20441;SDS011;10380;52.102;20.614;2023-02-25T10:12:04;5.07;;;4.00;;
20441;SDS011;10380;52.102;20.614;2023-02-25T10:14:43;5.87;;;4.53;;
20441;SDS011;10380;52.102;20.614;2023-02-25T10:25:53;9.27;;;5.90;;
20441;SDS011;10380;52.102;20.614;2023-02-25T10:28:23;8.90;;;5.53;;
20441;SDS011;10380;52.102;20.614;2023-02-25T10:30:55;9.70;;;6.80;;
20441;SDS011;10380;52.102;20.614;2023-02-25T10:33:31;9.17;;;6.53;;
20441;SDS011;10380;52.102;20.614;2023-02-25T10:36:07;10.07;;;6.83;;
20441;SDS011;10380;52.102;20.614;2023-02-25T10:38:44;7.50;;;5.53;;
20441;SDS011;10380;52.102;20.614;2023-02-25T10:41:16;6.93;;;5.33;;
20441;SDS011;10380;52.102;20.614;2023-02-25T10:43:44;6.47;;;4.90;;
20441;SDS011;10380;52.102;20.614;2023-02-25T10:46:17;6.03;;;4.60;;
20441;SDS011;10380;52.102;20.614;2023-02-25T10:48:46;6.03;;;4.77;;
20441;SDS011;10380;52.102;20.614;2023-02-25T10:51:21;7.17;;;5.33;;
20441;SDS011;10380;52.102;20.614;2023-02-25T10:56:32;6.00;;;4.07;;
20441;SDS011;10380;52.102;20.614;2023-02-25T10:59:29;7.03;;;4.80;;
20441;SDS011;10380;52.102;20.614;2023-02-25T11:07:56;6.97;;;4.93;;
20441;SDS011;10380;52.102;20.614;2023-02-25T11:10:23;8.73;;;5.70;;
20441;SDS011;10380;52.102;20.614;2023-02-25T11:12:51;9.27;;;6.13;;
20441;SDS011;10380;52.102;20.614;2023-02-25T11:20:54;9.77;;;5.70;;
20441;SDS011;10380;52.102;20.614;2023-02-25T11:23:44;9.43;;;5.83;;
20441;SDS011;10380;52.102;20.614;2023-02-25T11:26:16;7.93;;;6.20;;
20441;SDS011;10380;52.102;20.614;2023-02-25T11:28:54;6.97;;;6.27;;
20441;SDS011;10380;52.102;20.614;2023-02-25T11:31:27;10.00;;;6.63;;
20441;SDS011;10380;52.102;20.614;2023-02-25T11:33:59;8.97;;;5.67;;
20441;SDS011;10380;52.102;20.614;2023-02-25T11:36:34;5.60;;;4.87;;
20441;SDS011;10380;52.102;20.614;2023-02-25T11:39:05;3.40;;;3.10;;
20441;SDS011;10380;52.102;20.614;2023-02-25T11:41:32;4.63;;;2.90;;
20441;SDS011;10380;52.102;20.614;2023-02-25T11:44:20;4.10;;;3.30;;
20441;SDS011;10380;52.102;20.614;2023-02-25T11:46:55;3.53;;;2.97;;
20441;SDS011;10380;52.102;20.614;2023-02-25T11:52:04;5.67;;;3.80;;
20441;SDS011;10380;52.102;20.614;2023-02-25T11:57:48;4.70;;;3.63;;
20441;SDS011;10380;52.102;20.614;2023-02-25T12:05:51;5.40;;;3.50;;
20441;SDS011;10380;52.102;20.614;2023-02-25T12:16:59;6.90;;;5.20;;
20441;SDS011;10380;52.102;20.614;2023-02-25T12:23:13;8.97;;;4.60;;
20441;SDS011;10380;52.102;20.614;2023-02-25T12:26:13;6.83;;;4.00;;
20441;SDS011;10380;52.102;20.614;2023-02-25T12:29:06;3.27;;;2.17;;
20441;SDS011;10380;52.102;20.614;2023-02-25T12:34:27;5.87;;;4.13;;
20441;SDS011;10380;52.102;20.614;2023-02-25T12:40:18;5.60;;;4.47;;
20441;SDS011;10380;52.102;20.614;2023-02-25T12:54:27;4.80;;;4.27;;
20441;SDS011;10380;52.102;20.614;2023-02-25T12:57:20;5.37;;;4.00;;
20441;SDS011;10380;52.102;20.614;2023-02-25T13:02:46;3.67;;;2.87;;
20441;SDS011;10380;52.102;20.614;2023-02-25T13:08:56;3.07;;;2.40;;
20441;SDS011;10380;52.102;20.614;2023-02-25T13:14:36;3.07;;;2.70;;
20441;SDS011;10380;52.102;20.614;2023-02-25T13:17:20;4.30;;;2.97;;
20441;SDS011;10380;52.102;20.614;2023-02-25T13:25:14;3.67;;;3.33;;
20441;SDS011;10380;52.102;20.614;2023-02-25T13:28:19;1.73;;;1.63;;
20441;SDS011;10380;52.102;20.614;2023-02-25T13:36:56;3.93;;;2.60;;
20441;SDS011;10380;52.102;20.614;2023-02-25T13:48:36;8.17;;;6.07;;
20441;SDS011;10380;52.102;20.614;2023-02-25T13:56:51;9.40;;;5.27;;
20441;SDS011;10380;52.102;20.614;2023-02-25T13:59:33;8.00;;;4.83;;
20441;SDS011;10380;52.102;20.614;2023-02-25T14:05:06;5.30;;;3.27;;
20441;SDS011;10380;52.102;20.614;2023-02-25T14:19:46;4.53;;;3.30;;
20441;SDS011;10380;52.102;20.614;2023-02-25T14:22:35;3.73;;;2.90;;
20441;SDS011;10380;52.102;20.614;2023-02-25T14:25:15;5.93;;;3.17;;
20441;SDS011;10380;52.102;20.614;2023-02-25T14:28:03;4.53;;;2.23;;
20441;SDS011;10380;52.102;20.614;2023-02-25T14:48:02;14.73;;;9.57;;
20441;SDS011;10380;52.102;20.614;2023-02-25T14:50:42;6.20;;;4.67;;
20441;SDS011;10380;52.102;20.614;2023-02-25T15:01:35;7.83;;;3.93;;
20441;SDS011;10380;52.102;20.614;2023-02-25T15:19:44;4.43;;;3.83;;
20441;SDS011;10380;52.102;20.614;2023-02-25T15:22:24;12.17;;;8.17;;
20441;SDS011;10380;52.102;20.614;2023-02-25T15:30:20;8.73;;;5.37;;
20441;SDS011;10380;52.102;20.614;2023-02-25T15:33:05;7.10;;;5.63;;
20441;SDS011;10380;52.102;20.614;2023-02-25T15:43:00;6.37;;;4.57;;
20441;SDS011;10380;52.102;20.614;2023-02-25T15:45:40;7.13;;;5.43;;
20441;SDS011;10380;52.102;20.614;2023-02-25T15:48:28;7.50;;;5.00;;
20441;SDS011;10380;52.102;20.614;2023-02-25T15:50:59;6.57;;;4.57;;
20441;SDS011;10380;52.102;20.614;2023-02-25T16:09:07;8.50;;;5.90;;
20441;SDS011;10380;52.102;20.614;2023-02-25T16:11:43;7.93;;;5.23;;
20441;SDS011;10380;52.102;20.614;2023-02-25T16:14:20;7.70;;;5.27;;
20441;SDS011;10380;52.102;20.614;2023-02-25T16:16:57;8.87;;;6.33;;
20441;SDS011;10380;52.102;20.614;2023-02-25T16:19:29;10.23;;;5.90;;
20441;SDS011;10380;52.102;20.614;2023-02-25T16:22:05;8.80;;;6.67;;
20441;SDS011;10380;52.102;20.614;2023-02-25T16:24:35;13.97;;;8.93;;
20441;SDS011;10380;52.102;20.614;2023-02-25T16:27:07;11.40;;;7.93;;
20441;SDS011;10380;52.102;20.614;2023-02-25T16:40:36;12.93;;;7.43;;
20441;SDS011;10380;52.102;20.614;2023-02-25T16:43:05;10.77;;;7.93;;
20441;SDS011;10380;52.102;20.614;2023-02-25T16:45:43;12.20;;;8.80;;
20441;SDS011;10380;52.102;20.614;2023-02-25T16:48:23;11.80;;;7.17;;
20441;SDS011;10380;52.102;20.614;2023-02-25T16:50:54;11.67;;;8.13;;
20441;SDS011;10380;52.102;20.614;2023-02-25T16:53:22;13.70;;;8.27;;
20441;SDS011;10380;52.102;20.614;2023-02-25T16:56:00;10.03;;;6.90;;
20441;SDS011;10380;52.102;20.614;2023-02-25T16:58:28;11.77;;;8.47;;
20441;SDS011;10380;52.102;20.614;2023-02-25T17:00:57;11.20;;;7.23;;
20441;SDS011;10380;52.102;20.614;2023-02-25T17:03:37;10.27;;;8.00;;
20441;SDS011;10380;52.102;20.614;2023-02-25T17:06:14;12.77;;;8.40;;
20441;SDS011;10380;52.102;20.614;2023-02-25T17:08:46;10.67;;;8.43;;
20441;SDS011;10380;52.102;20.614;2023-02-25T17:11:15;14.90;;;9.60;;
20441;SDS011;10380;52.102;20.614;2023-02-25T17:13:44;11.10;;;8.50;;
20441;SDS011;10380;52.102;20.614;2023-02-25T17:19:01;11.70;;;8.23;;
20441;SDS011;10380;52.102;20.614;2023-02-25T17:21:33;9.33;;;8.03;;
20441;SDS011;10380;52.102;20.614;2023-02-25T17:24:03;9.80;;;6.53;;
20441;SDS011;10380;52.102;20.614;2023-02-25T17:26:32;12.93;;;8.27;;
20441;SDS011;10380;52.102;20.614;2023-02-25T17:29:08;12.27;;;8.17;;
20441;SDS011;10380;52.102;20.614;2023-02-25T17:31:41;14.73;;;9.67;;
20441;SDS011;10380;52.102;20.614;2023-02-25T17:34:18;9.90;;;8.30;;
20441;SDS011;10380;52.102;20.614;2023-02-25T17:36:50;13.80;;;8.50;;
20441;SDS011;10380;52.102;20.614;2023-02-25T17:39:19;11.73;;;8.27;;
20441;SDS011;10380;52.102;20.614;2023-02-25T17:41:47;9.50;;;7.57;;
20441;SDS011;10380;52.102;20.614;2023-02-25T17:47:07;17.40;;;10.33;;
20441;SDS011;10380;52.102;20.614;2023-02-25T17:49:37;16.27;;;9.97;;
20441;SDS011;10380;52.102;20.614;2023-02-25T17:52:05;17.13;;;11.07;;
20441;SDS011;10380;52.102;20.614;2023-02-25T17:54:40;18.57;;;10.60;;
20441;SDS011;10380;52.102;20.614;2023-02-25T17:57:15;11.17;;;8.17;;
20441;SDS011;10380;52.102;20.614;2023-02-25T18:00:27;18.77;;;10.53;;
20441;SDS011;10380;52.102;20.614;2023-02-25T18:02:42;21.33;;;11.97;;
20441;SDS011;10380;52.102;20.614;2023-02-25T18:13:02;22.13;;;13.10;;
20441;SDS011;10380;52.102;20.614;2023-02-25T18:15:32;17.77;;;10.90;;
20441;SDS011;10380;52.102;20.614;2023-02-25T18:18:04;11.53;;;6.97;;
20441;SDS011;10380;52.102;20.614;2023-02-25T18:20:39;16.97;;;10.57;;
20441;SDS011;10380;52.102;20.614;2023-02-25T18:23:15;10.67;;;8.23;;
20441;SDS011;10380;52.102;20.614;2023-02-25T18:25:48;8.33;;;6.67;;
20441;SDS011;10380;52.102;20.614;2023-02-25T18:28:34;15.50;;;10.00;;
20441;SDS011;10380;52.102;20.614;2023-02-25T18:33:33;11.93;;;7.97;;
20441;SDS011;10380;52.102;20.614;2023-02-25T18:36:00;10.20;;;7.67;;
20441;SDS011;10380;52.102;20.614;2023-02-25T18:38:32;12.10;;;8.40;;
20441;SDS011;10380;52.102;20.614;2023-02-25T18:41:06;11.67;;;7.93;;
20441;SDS011;10380;52.102;20.614;2023-02-25T18:43:34;7.00;;;5.30;;
20441;SDS011;10380;52.102;20.614;2023-02-25T18:46:08;11.77;;;7.00;;
20441;SDS011;10380;52.102;20.614;2023-02-25T18:48:35;9.93;;;7.33;;
20441;SDS011;10380;52.102;20.614;2023-02-25T18:51:03;9.37;;;5.17;;
20441;SDS011;10380;52.102;20.614;2023-02-25T18:53:37;10.87;;;7.43;;
20441;SDS011;10380;52.102;20.614;2023-02-25T18:56:05;7.97;;;5.57;;